Time;durP1;ratioP1;P1;durP2;ratioP2;P2;SDS_P1;SDS_P2;PMS_P1;PMS_P2;Temp;Humidity;BMP_temperature;BMP_pressure;BME280_temperature;BME280_humidity;BME280_pressure;Samples;Min_cycle;Max_cycle;Signal;HPM_P1;HPM_P2
2023/10/24 00:01:35;;;;;;;5.13;4.40;;;12.60;99.90;;;;;;4974721;28;20179;-76
2023/10/24 00:04:00;;;;;;;4.10;3.80;;;12.60;99.90;;;;;;4974707;28;20199;-76
2023/10/24 00:06:26;;;;;;;3.93;3.70;;;12.50;99.90;;;;;;4974595;28;20580;-75
2023/10/24 00:08:52;;;;;;;4.00;3.67;;;12.60;99.90;;;;;;4974496;28;20734;-75
2023/10/24 00:11:18;;;;;;;3.80;3.53;;;12.60;99.90;;;;;;4974535;28;20175;-75
2023/10/24 00:13:43;;;;;;;3.73;3.43;;;12.50;99.90;;;;;;4974178;28;20231;-76
2023/10/24 00:16:09;;;;;;;3.80;3.50;;;12.50;99.90;;;;;;4974490;28;20230;-75
2023/10/24 00:18:34;;;;;;;3.77;3.57;;;12.50;99.90;;;;;;4974537;28;20270;-75
2023/10/24 00:21:00;;;;;;;5.17;3.00;;;12.50;99.90;;;;;;4974171;28;20632;-76
2023/10/24 00:23:29;;;;;;;3.17;2.80;;;12.50;99.90;;;;;;4974284;28;20222;-75
2023/10/24 00:25:54;;;;;;;4.33;2.70;;;12.40;99.90;;;;;;4974621;28;20251;-76
2023/10/24 00:28:20;;;;;;;6.07;2.90;;;12.40;99.90;;;;;;4974036;28;20382;-75
2023/10/24 00:30:46;;;;;;;4.80;2.40;;;12.40;99.90;;;;;;4974383;28;20744;-75
2023/10/24 00:33:11;;;;;;;2.47;2.37;;;12.40;99.90;;;;;;4974239;28;20179;-76
2023/10/24 00:35:37;;;;;;;2.90;2.70;;;12.40;99.90;;;;;;4976295;28;20646;-74
2023/10/24 00:38:03;;;;;;;3.00;2.80;;;12.40;99.90;;;;;;4978350;28;20256;-76
2023/10/24 00:40:28;;;;;;;2.90;2.70;;;12.40;99.90;;;;;;4978091;28;20254;-76
2023/10/24 00:42:54;;;;;;;3.10;2.90;;;12.30;99.90;;;;;;4977960;28;20184;-75
2023/10/24 00:45:19;;;;;;;3.40;3.00;;;12.30;99.90;;;;;;4978372;28;20179;-75
2023/10/24 00:47:45;;;;;;;4.17;3.77;;;12.20;99.90;;;;;;4978024;28;20602;-75
2023/10/24 00:50:12;;;;;;;3.57;3.33;;;12.20;99.90;;;;;;4977965;28;20213;-75
2023/10/24 00:52:39;;;;;;;3.80;3.50;;;12.20;99.90;;;;;;4978117;28;20180;-75
2023/10/24 00:55:07;;;;;;;3.83;3.63;;;12.10;99.90;;;;;;4977973;28;20184;-74
2023/10/24 00:57:33;;;;;;;4.60;4.20;;;12.10;99.90;;;;;;4977610;28;20196;-75
2023/10/24 01:00:00;;;;;;;3.80;3.60;;;12.10;99.90;;;;;;4978173;28;20180;-75
2023/10/24 01:02:26;;;;;;;3.93;3.63;;;12.10;99.90;;;;;;4977815;28;20283;-75
2023/10/24 01:04:54;;;;;;;3.87;3.60;;;12.10;99.90;;;;;;4977832;28;20660;-75
2023/10/24 01:07:20;;;;;;;3.70;3.50;;;12.00;99.90;;;;;;4977904;28;20652;-75
2023/10/24 01:09:46;;;;;;;3.90;3.60;;;12.00;99.90;;;;;;4977777;28;20303;-74
2023/10/24 01:12:11;;;;;;;3.37;3.17;;;12.00;99.90;;;;;;4977409;28;20202;-75
2023/10/24 01:14:38;;;;;;;3.63;3.33;;;12.00;99.90;;;;;;4977793;28;20180;-74
2023/10/24 01:17:11;;;;;;;3.80;3.47;;;12.00;99.90;;;;;;4976400;28;20176;-75
2023/10/24 01:19:36;;;;;;;3.50;3.30;;;12.00;99.90;;;;;;4977661;28;20186;-75
2023/10/24 01:22:02;;;;;;;4.00;3.70;;;11.90;99.90;;;;;;4977552;28;20258;-75
2023/10/24 01:24:29;;;;;;;3.57;3.37;;;12.00;99.90;;;;;;4976958;28;20770;-74
2023/10/24 01:26:56;;;;;;;3.57;3.37;;;12.00;99.90;;;;;;4977408;28;20164;-75
2023/10/24 01:29:22;;;;;;;4.23;3.67;;;12.00;99.90;;;;;;4977373;28;20201;-74
2023/10/24 01:31:48;;;;;;;3.77;3.47;;;12.00;99.90;;;;;;4977363;28;20527;-75
2023/10/24 01:34:13;;;;;;;4.00;3.67;;;12.10;99.90;;;;;;4977449;28;20537;-75
2023/10/24 01:36:39;;;;;;;3.87;3.63;;;12.10;99.90;;;;;;4977530;28;20664;-75
2023/10/24 01:39:05;;;;;;;4.03;3.77;;;12.20;99.90;;;;;;4976896;28;20200;-75
2023/10/24 01:41:30;;;;;;;4.30;3.90;;;12.10;99.90;;;;;;4977488;28;20183;-74
2023/10/24 01:43:57;;;;;;;4.43;3.80;;;12.10;99.90;;;;;;4977330;28;20168;-76
2023/10/24 01:46:23;;;;;;;4.87;4.47;;;12.10;99.90;;;;;;4976521;28;20531;-76
2023/10/24 01:48:49;;;;;;;4.70;4.30;;;12.10;99.90;;;;;;4977086;28;20207;-77
2023/10/24 01:51:14;;;;;;;3.60;3.40;;;12.10;99.90;;;;;;4976966;28;20174;-76
2023/10/24 01:53:40;;;;;;;4.30;4.00;;;12.10;99.90;;;;;;4976598;28;20214;-76
2023/10/24 01:56:06;;;;;;;4.23;3.93;;;12.10;99.90;;;;;;4976931;28;20174;-76
2023/10/24 01:58:31;;;;;;;3.90;3.60;;;12.10;99.90;;;;;;4977002;28;20186;-75
2023/10/24 02:00:57;;;;;;;4.87;4.47;;;12.10;99.90;;;;;;4976634;28;20632;-77
2023/10/24 02:03:22;;;;;;;4.93;4.53;;;12.00;99.90;;;;;;4976922;28;20187;-75
2023/10/24 02:05:48;;;;;;;4.73;4.43;;;12.00;99.90;;;;;;4976719;28;20239;-75
2023/10/24 02:08:13;;;;;;;5.20;4.80;;;12.00;99.90;;;;;;4976274;28;20215;-74
2023/10/24 02:10:39;;;;;;;4.90;4.50;;;12.00;99.90;;;;;;4976861;28;20180;-76
2023/10/24 02:13:05;;;;;;;5.20;4.80;;;12.10;99.90;;;;;;4976922;28;20569;-75
2023/10/24 02:15:30;;;;;;;4.83;4.33;;;12.10;99.90;;;;;;4976582;28;20259;-75
2023/10/24 02:17:56;;;;;;;5.13;4.67;;;12.10;99.90;;;;;;4976444;28;20184;-75
2023/10/24 02:20:22;;;;;;;4.30;4.00;;;12.10;99.90;;;;;;4976346;28;20180;-75
2023/10/24 02:22:51;;;;;;;4.40;4.10;;;12.10;99.90;;;;;;4975747;28;20539;-75
2023/10/24 02:25:16;;;;;;;4.80;4.50;;;12.10;99.90;;;;;;4976573;28;20211;-74
2023/10/24 02:27:42;;;;;;;4.83;4.47;;;12.10;99.90;;;;;;4976435;28;20675;-74
2023/10/24 02:30:08;;;;;;;4.23;3.93;;;12.20;99.90;;;;;;4976038;28;20253;-75
2023/10/24 02:32:33;;;;;;;4.60;4.30;;;12.10;99.90;;;;;;4976187;28;20179;-75
2023/10/24 02:34:59;;;;;;;4.57;4.27;;;12.10;99.90;;;;;;4976291;28;20172;-74
2023/10/24 02:37:25;;;;;;;5.07;4.50;;;12.10;99.90;;;;;;4975854;28;20176;-75
2023/10/24 02:39:50;;;;;;;4.47;4.17;;;12.10;99.90;;;;;;4976082;28;20179;-75
2023/10/24 02:42:16;;;;;;;4.20;3.90;;;12.10;99.90;;;;;;4974834;28;20568;-75
2023/10/24 02:44:41;;;;;;;4.50;4.10;;;12.10;99.90;;;;;;4975876;28;20183;-75
2023/10/24 02:47:07;;;;;;;4.33;4.03;;;12.10;99.90;;;;;;4975091;28;20179;-74
2023/10/24 02:49:33;;;;;;;4.40;4.10;;;12.20;99.90;;;;;;4975914;28;20667;-76
2023/10/24 02:51:58;;;;;;;4.60;4.30;;;12.10;99.90;;;;;;4975557;28;20208;-75
2023/10/24 02:54:24;;;;;;;4.20;3.90;;;12.10;99.90;;;;;;4975993;28;20492;-75
2023/10/24 02:56:50;;;;;;;4.70;4.00;;;12.20;99.90;;;;;;4975557;28;20192;-75
2023/10/24 02:59:16;;;;;;;4.23;3.93;;;12.20;99.90;;;;;;4974991;28;20669;-74
2023/10/24 03:01:42;;;;;;;4.53;4.23;;;12.20;99.90;;;;;;4975609;28;20188;-75
2023/10/24 03:04:08;;;;;;;4.17;3.87;;;12.20;99.90;;;;;;4975869;28;20243;-76
2023/10/24 03:06:33;;;;;;;4.07;3.77;;;12.20;99.90;;;;;;4974000;28;20217;-75
2023/10/24 03:08:59;;;;;;;4.00;3.77;;;12.30;99.90;;;;;;4975743;28;20222;-75
2023/10/24 03:11:25;;;;;;;4.53;4.13;;;12.20;99.90;;;;;;4975546;28;20184;-75
2023/10/24 03:13:54;;;;;;;4.40;4.10;;;12.20;99.90;;;;;;4975340;28;20188;-74
2023/10/24 03:16:21;;;;;;;4.37;4.07;;;12.20;99.90;;;;;;4975387;28;20172;-74
2023/10/24 03:18:47;;;;;;;4.70;4.30;;;12.10;99.90;;;;;;4975061;28;20179;-74
2023/10/24 03:21:13;;;;;;;4.60;4.30;;;12.10;99.90;;;;;;4974265;28;20171;-75
2023/10/24 03:23:44;;;;;;;4.43;4.13;;;12.20;99.90;;;;;;4974917;28;20303;-74
2023/10/24 03:26:10;;;;;;;4.93;4.53;;;12.20;99.90;;;;;;4975018;28;20179;-74
2023/10/24 03:28:35;;;;;;;4.80;4.50;;;12.20;99.90;;;;;;4974942;28;20215;-74
2023/10/24 03:31:05;;;;;;;5.13;4.73;;;12.10;99.90;;;;;;4974980;28;20238;-74
2023/10/24 03:33:32;;;;;;;5.70;5.13;;;12.10;99.90;;;;;;4975045;28;20207;-75
2023/10/24 03:35:58;;;;;;;5.70;5.23;;;12.10;99.90;;;;;;4974458;28;20212;-75
2023/10/24 03:38:25;;;;;;;6.63;6.03;;;12.10;99.90;;;;;;4974672;28;20235;-75
2023/10/24 03:40:51;;;;;;;6.43;5.83;;;12.20;99.90;;;;;;4974553;28;20164;-75
2023/10/24 03:43:18;;;;;;;6.90;6.20;;;12.20;99.90;;;;;;4974786;28;20271;-75
2023/10/24 03:45:43;;;;;;;6.97;6.37;;;12.30;99.90;;;;;;4974608;28;20242;-74
2023/10/24 03:48:09;;;;;;;7.40;6.70;;;12.30;99.90;;;;;;4974571;28;20660;-75
2023/10/24 03:50:37;;;;;;;7.27;6.67;;;12.30;99.90;;;;;;4974169;28;20207;-74
2023/10/24 03:53:03;;;;;;;7.20;6.50;;;12.20;99.90;;;;;;4974452;28;20277;-74
2023/10/24 03:55:30;;;;;;;7.20;6.50;;;12.20;99.90;;;;;;4974409;28;20203;-75
2023/10/24 03:57:56;;;;;;;10.40;7.00;;;12.30;99.90;;;;;;4974580;28;20207;-74
2023/10/24 04:00:22;;;;;;;7.87;7.17;;;12.30;99.90;;;;;;4974311;28;20168;-74
2023/10/24 04:02:51;;;;;;;8.07;7.37;;;12.40;99.90;;;;;;4974422;28;20176;-74
2023/10/24 04:05:17;;;;;;;8.03;7.23;;;12.30;99.90;;;;;;4974064;28;20207;-75
2023/10/24 04:07:43;;;;;;;7.50;6.90;;;12.40;99.90;;;;;;4974273;28;20253;-75
2023/10/24 04:10:09;;;;;;;8.43;7.43;;;12.40;99.90;;;;;;4973737;28;20184;-75
2023/10/24 04:12:34;;;;;;;8.57;7.67;;;12.40;99.90;;;;;;4974554;28;20258;-74
2023/10/24 04:15:00;;;;;;;9.40;8.50;;;12.30;99.90;;;;;;4973889;28;20643;-75
2023/10/24 04:17:26;;;;;;;8.50;7.70;;;12.40;99.90;;;;;;4974304;28;20172;-74
2023/10/24 04:19:51;;;;;;;8.97;8.07;;;12.40;99.90;;;;;;4973653;28;20674;-75
2023/10/24 04:22:17;;;;;;;9.37;7.87;;;12.30;99.90;;;;;;4973839;28;20172;-74
2023/10/24 04:24:43;;;;;;;8.90;8.00;;;12.40;99.90;;;;;;4972066;28;20237;-73
2023/10/24 04:27:09;;;;;;;9.33;8.33;;;12.40;99.90;;;;;;4974178;28;20262;-74
2023/10/24 04:29:35;;;;;;;9.07;8.03;;;12.40;99.90;;;;;;4973865;28;20176;-74
2023/10/24 04:32:01;;;;;;;8.90;8.00;;;12.50;99.90;;;;;;4974087;28;20255;-73
2023/10/24 04:34:26;;;;;;;10.67;8.10;;;12.40;99.90;;;;;;4973442;28;20164;-74
2023/10/24 04:36:53;;;;;;;11.20;9.00;;;12.40;99.90;;;;;;4974053;28;20207;-74
2023/10/24 04:39:19;;;;;;;9.80;8.77;;;12.20;99.90;;;;;;4973314;28;20187;-74
2023/10/24 04:41:48;;;;;;;10.83;8.40;;;12.10;99.90;;;;;;4973655;28;20632;-75
2023/10/24 04:44:14;;;;;;;11.97;8.97;;;12.10;99.90;;;;;;4973832;28;20176;-73
2023/10/24 04:46:40;;;;;;;9.83;8.63;;;12.10;99.90;;;;;;4973566;28;20168;-74
2023/10/24 04:49:06;;;;;;;10.63;9.07;;;12.20;99.90;;;;;;4973047;28;20219;-74
2023/10/24 04:51:32;;;;;;;12.93;9.97;;;12.10;99.90;;;;;;4973498;28;20222;-73
2023/10/24 04:53:57;;;;;;;13.33;9.80;;;12.20;99.90;;;;;;4973188;28;20596;-74
2023/10/24 04:56:23;;;;;;;10.93;9.60;;;12.20;99.90;;;;;;4973580;28;20191;-73
2023/10/24 04:58:50;;;;;;;12.07;9.80;;;12.10;99.90;;;;;;4973308;28;20262;-74
2023/10/24 05:01:16;;;;;;;15.10;10.73;;;12.10;99.90;;;;;;4973143;28;20164;-75
2023/10/24 05:03:42;;;;;;;14.23;10.20;;;12.10;99.90;;;;;;4972955;28;20212;-74
2023/10/24 05:06:08;;;;;;;14.30;10.87;;;12.20;99.90;;;;;;4973636;28;20632;-74
2023/10/24 05:08:34;;;;;;;11.87;9.80;;;12.10;99.90;;;;;;4973516;28;20609;-74
2023/10/24 05:11:01;;;;;;;13.20;9.97;;;12.20;99.90;;;;;;4973412;28;20175;-74
2023/10/24 05:13:26;;;;;;;13.00;10.77;;;12.20;99.90;;;;;;4973461;28;20220;-74
2023/10/24 05:15:52;;;;;;;13.60;10.53;;;12.20;99.90;;;;;;4973186;28;20207;-73
2023/10/24 05:18:18;;;;;;;14.67;11.30;;;12.10;99.90;;;;;;4973271;28;20172;-74
2023/10/24 05:20:43;;;;;;;13.07;10.33;;;12.10;99.90;;;;;;4973883;28;20603;-73
2023/10/24 05:23:09;;;;;;;13.87;10.13;;;12.10;99.90;;;;;;4976331;28;20684;-74
2023/10/24 05:25:35;;;;;;;14.77;10.50;;;12.10;99.90;;;;;;4976833;28;20172;-74
2023/10/24 05:28:01;;;;;;;13.03;10.40;;;12.10;99.90;;;;;;4976723;28;20667;-74
2023/10/24 05:30:26;;;;;;;15.30;10.37;;;12.10;99.90;;;;;;4976310;28;20532;-74
2023/10/24 05:32:52;;;;;;;13.63;10.47;;;12.10;99.90;;;;;;4975975;28;20176;-74
2023/10/24 05:35:18;;;;;;;13.03;10.33;;;12.10;99.90;;;;;;4976488;28;20164;-74
2023/10/24 05:37:43;;;;;;;12.33;10.00;;;12.00;99.90;;;;;;4976053;28;20608;-74
2023/10/24 05:40:09;;;;;;;13.63;10.43;;;12.00;99.90;;;;;;4976123;28;20168;-73
2023/10/24 05:42:36;;;;;;;14.77;10.50;;;12.00;99.90;;;;;;4976338;28;20648;-73
2023/10/24 05:45:02;;;;;;;14.90;9.37;;;12.00;99.90;;;;;;4976321;28;20184;-74
2023/10/24 05:47:28;;;;;;;12.80;10.07;;;11.90;99.90;;;;;;4975997;28;20227;-77
2023/10/24 05:49:54;;;;;;;11.60;9.53;;;11.90;99.90;;;;;;4975918;28;20211;-74
2023/10/24 05:52:19;;;;;;;12.83;10.13;;;11.90;99.90;;;;;;4975014;28;20297;-73
2023/10/24 05:54:45;;;;;;;12.83;10.00;;;11.90;99.90;;;;;;4976290;28;20179;-73
2023/10/24 05:57:10;;;;;;;12.93;10.07;;;11.90;99.90;;;;;;4975434;28;20283;-75
2023/10/24 05:59:36;;;;;;;12.80;9.93;;;11.80;99.90;;;;;;4975402;28;20175;-73
2023/10/24 06:02:02;;;;;;;13.57;9.67;;;11.90;99.90;;;;;;4975627;28;20180;-77
2023/10/24 06:04:27;;;;;;;13.10;9.27;;;11.80;99.90;;;;;;4975801;28;20176;-76
2023/10/24 06:06:53;;;;;;;12.77;9.40;;;11.80;99.90;;;;;;4975727;28;20179;-77
2023/10/24 06:09:19;;;;;;;13.33;9.57;;;11.70;99.90;;;;;;4974075;28;20223;-73
2023/10/24 06:11:45;;;;;;;13.10;8.90;;;11.70;99.90;;;;;;4975541;28;20180;-77
2023/10/24 06:14:10;;;;;;;12.33;9.97;;;11.70;99.90;;;;;;4975325;28;20176;-75
2023/10/24 06:16:36;;;;;;;14.07;9.53;;;11.70;99.90;;;;;;4975626;28;20183;-79
2023/10/24 06:19:02;;;;;;;12.43;8.30;;;11.70;99.90;;;;;;4975299;28;20283;-73
2023/10/24 06:21:28;;;;;;;13.47;8.20;;;11.70;99.90;;;;;;4974521;28;20199;-74
2023/10/24 06:23:54;;;;;;;14.77;9.00;;;11.70;99.90;;;;;;4975268;28;20695;-74
2023/10/24 06:26:19;;;;;;;8.70;7.80;;;11.70;99.90;;;;;;4975253;28;20239;-74
2023/10/24 06:28:46;;;;;;;13.17;8.43;;;11.80;99.90;;;;;;4973446;28;20215;-72
2023/10/24 06:31:12;;;;;;;14.07;9.10;;;11.80;99.90;;;;;;4974973;28;20200;-72
2023/10/24 06:33:38;;;;;;;11.53;8.10;;;11.90;99.90;;;;;;4975169;28;20168;-72
2023/10/24 06:36:05;;;;;;;11.93;8.10;;;12.00;99.90;;;;;;4974073;28;20268;-73
2023/10/24 06:38:31;;;;;;;11.20;8.20;;;12.00;99.90;;;;;;4975344;28;20176;-72
2023/10/24 06:40:58;;;;;;;14.57;8.13;;;12.00;99.90;;;;;;4973724;28;20525;-72
2023/10/24 06:43:25;;;;;;;10.60;7.63;;;12.00;99.90;;;;;;4972867;28;20175;-72
2023/10/24 06:45:51;;;;;;;9.97;7.87;;;12.10;99.90;;;;;;4975040;28;20176;-72
2023/10/24 06:48:16;;;;;;;11.93;8.03;;;12.10;99.90;;;;;;4974717;28;20212;-71
2023/10/24 06:50:42;;;;;;;10.93;8.03;;;12.10;99.90;;;;;;4973985;28;20179;-72
2023/10/24 06:53:09;;;;;;;11.17;8.03;;;12.20;99.90;;;;;;4973434;28;20633;-74
2023/10/24 06:55:35;;;;;;;8.70;7.80;;;12.20;99.90;;;;;;4972951;28;20231;-72
2023/10/24 06:58:01;;;;;;;8.23;7.30;;;12.20;99.90;;;;;;4973788;28;20283;-73
2023/10/24 07:00:28;;;;;;;14.13;8.07;;;12.30;99.90;;;;;;4974431;28;20215;-73
2023/10/24 07:02:54;;;;;;;13.97;7.77;;;12.40;99.90;;;;;;4974250;28;20187;-74
2023/10/24 07:05:20;;;;;;;10.37;7.40;;;12.50;99.90;;;;;;4974388;28;20263;-76
2023/10/24 07:07:46;;;;;;;12.53;7.20;;;12.60;99.90;;;;;;4973618;28;20294;-76
2023/10/24 07:10:11;;;;;;;10.87;6.50;;;13.00;99.90;;;;;;4970161;28;20191;-71
2023/10/24 07:12:37;;;;;;;7.17;6.47;;;13.30;99.90;;;;;;4969050;28;20634;-77
2023/10/24 07:15:03;;;;;;;8.63;6.70;;;13.60;99.90;;;;;;4960032;28;20192;-73
2023/10/24 07:17:30;;;;;;;8.20;6.80;;;13.80;99.90;;;;;;4964229;28;20187;-80
2023/10/24 07:19:58;;;;;;;9.20;6.53;;;13.80;99.90;;;;;;4958870;28;20188;-73
2023/10/24 07:22:24;;;;;;;11.03;6.67;;;13.90;99.90;;;;;;4958137;28;20311;-84
2023/10/24 07:24:50;;;;;;;6.93;6.30;;;13.90;99.90;;;;;;4973406;28;20313;-73
2023/10/24 07:27:15;;;;;;;7.67;6.17;;;13.80;99.90;;;;;;4960276;28;20214;-77
2023/10/24 07:29:41;;;;;;;7.50;6.33;;;13.60;99.90;;;;;;4973774;28;20184;-82
2023/10/24 07:32:08;;;;;;;8.23;7.00;;;13.50;99.90;;;;;;4965440;28;20213;-76
2023/10/24 07:34:34;;;;;;;9.13;7.10;;;13.40;99.90;;;;;;4965844;28;20626;-81
2023/10/24 07:37:00;;;;;;;8.13;6.70;;;13.40;99.90;;;;;;4975408;28;20187;-82
2023/10/24 07:39:27;;;;;;;7.40;6.67;;;13.50;99.90;;;;;;4976072;28;20194;-87
2023/10/24 07:41:52;;;;;;;10.37;6.63;;;13.40;99.90;;;;;;4979190;28;20175;-86
2023/10/24 07:44:18;;;;;;;8.70;6.60;;;13.50;99.90;;;;;;4987783;28;20631;-78
2023/10/24 07:46:44;;;;;;;8.50;6.83;;;13.50;99.90;;;;;;4971201;28;20511;-80
2023/10/24 07:49:10;;;;;;;8.80;6.57;;;13.50;99.90;;;;;;4977705;28;20228;-86
2023/10/24 07:51:36;;;;;;;8.70;6.47;;;13.60;99.90;;;;;;4982728;28;20557;-80
2023/10/24 07:54:02;;;;;;;11.27;6.87;;;13.70;99.90;;;;;;4977531;28;20187;-85
2023/10/24 07:56:28;;;;;;;7.70;6.90;;;13.80;99.90;;;;;;4966632;28;20278;-79
2023/10/24 07:58:53;;;;;;;10.57;6.67;;;13.90;99.90;;;;;;4962746;28;20194;-80
2023/10/24 08:01:19;;;;;;;9.57;7.37;;;13.90;99.90;;;;;;4967327;28;20647;-78
2023/10/24 08:03:45;;;;;;;9.87;7.20;;;13.80;99.90;;;;;;4966394;28;20522;-78
2023/10/24 08:06:11;;;;;;;13.17;7.90;;;13.80;99.90;;;;;;4966765;28;20210;-78
2023/10/24 08:08:39;;;;;;;10.10;7.90;;;13.80;99.90;;;;;;4968509;28;20206;-79
2023/10/24 08:11:05;;;;;;;11.37;7.67;;;13.70;99.90;;;;;;4969557;28;20171;-78
2023/10/24 08:13:31;;;;;;;14.63;8.33;;;13.70;99.90;;;;;;4972179;28;20176;-79
2023/10/24 08:15:58;;;;;;;8.97;7.80;;;13.80;99.90;;;;;;4971959;28;20546;-77
2023/10/24 08:18:24;;;;;;;15.90;8.63;;;13.60;99.90;;;;;;4970054;28;20210;-79
2023/10/24 08:20:50;;;;;;;9.17;8.10;;;13.60;99.90;;;;;;4973680;28;20180;-79
2023/10/24 08:23:16;;;;;;;11.90;8.13;;;13.70;99.90;;;;;;4972204;28;20753;-79
2023/10/24 08:25:41;;;;;;;12.97;9.53;;;13.70;99.90;;;;;;4972307;28;20168;-79
2023/10/24 08:28:07;;;;;;;10.20;9.07;;;13.80;99.90;;;;;;4972011;28;20223;-77
2023/10/24 08:30:34;;;;;;;12.57;9.20;;;13.80;99.90;;;;;;4973336;28;20682;-79
2023/10/24 08:33:00;;;;;;;10.83;8.13;;;13.70;99.90;;;;;;4974094;28;20171;-78
2023/10/24 08:35:26;;;;;;;13.50;9.33;;;13.50;99.90;;;;;;4973860;28;20179;-79
2023/10/24 08:37:51;;;;;;;10.43;9.20;;;13.50;99.90;;;;;;4973631;28;20315;-77
2023/10/24 08:40:18;;;;;;;10.77;9.60;;;13.50;99.90;;;;;;4973025;28;20637;-78
2023/10/24 08:42:44;;;;;;;11.80;9.47;;;13.50;99.90;;;;;;4972375;28;20254;-79
2023/10/24 08:45:11;;;;;;;15.97;10.00;;;13.50;99.90;;;;;;4973577;28;20616;-80
2023/10/24 08:47:37;;;;;;;13.13;9.37;;;13.50;99.90;;;;;;4973037;28;20278;-80
2023/10/24 08:50:03;;;;;;;13.23;8.87;;;13.50;99.90;;;;;;4972231;28;20176;-79
2023/10/24 08:52:32;;;;;;;12.50;9.97;;;13.60;99.90;;;;;;4973722;28;20184;-77
2023/10/24 08:55:00;;;;;;;10.13;9.10;;;13.60;99.90;;;;;;4973305;28;20203;-78
2023/10/24 08:57:30;;;;;;;10.43;8.87;;;13.60;99.90;;;;;;4974610;28;20298;-79
2023/10/24 08:59:57;;;;;;;9.50;8.50;;;13.70;99.90;;;;;;4977484;28;20192;-77
2023/10/24 09:02:23;;;;;;;13.17;8.83;;;13.60;99.90;;;;;;4977367;28;20194;-77
2023/10/24 09:04:50;;;;;;;9.43;7.90;;;13.50;99.90;;;;;;4975998;28;20176;-77
2023/10/24 09:07:16;;;;;;;10.97;8.60;;;13.50;99.90;;;;;;4977430;28;20176;-77
2023/10/24 09:09:41;;;;;;;12.83;8.63;;;13.30;99.90;;;;;;4976815;28;20703;-77
2023/10/24 09:12:09;;;;;;;9.63;7.70;;;13.30;99.90;;;;;;4976854;28;20183;-78
2023/10/24 09:14:35;;;;;;;8.27;6.93;;;13.30;99.90;;;;;;4977496;28;20168;-80
2023/10/24 09:17:05;;;;;;;10.13;7.67;;;13.30;99.90;;;;;;4977250;28;20186;-79
2023/10/24 09:19:31;;;;;;;8.63;7.67;;;13.30;99.90;;;;;;4977363;28;20639;-79
2023/10/24 09:21:57;;;;;;;7.83;7.13;;;13.30;99.90;;;;;;4976758;28;20168;-78
2023/10/24 09:24:23;;;;;;;8.17;7.47;;;13.20;99.90;;;;;;4976743;28;20303;-79
2023/10/24 09:26:56;;;;;;;8.07;7.23;;;13.10;99.90;;;;;;4977186;28;20327;-79
2023/10/24 09:29:27;;;;;;;8.30;7.50;;;13.10;99.90;;;;;;4975716;28;20223;-78
2023/10/24 09:31:53;;;;;;;8.30;6.57;;;13.10;99.90;;;;;;4975155;28;20172;-78
2023/10/24 09:34:19;;;;;;;7.63;6.73;;;13.00;99.90;;;;;;4977064;28;20176;-78
2023/10/24 09:36:46;;;;;;;7.10;6.43;;;13.10;99.90;;;;;;4976911;28;20633;-78
2023/10/24 09:39:13;;;;;;;7.27;6.53;;;13.10;99.90;;;;;;4976305;28;20201;-78
2023/10/24 09:41:49;;;;;;;9.30;7.63;;;13.10;99.90;;;;;;4976211;28;20195;-80
2023/10/24 09:44:16;;;;;;;8.93;7.87;;;13.20;99.90;;;;;;4976451;28;20211;-79
2023/10/24 09:46:42;;;;;;;9.60;6.93;;;13.00;99.90;;;;;;4976292;28;20195;-80
2023/10/24 09:49:09;;;;;;;5.73;3.40;;;12.80;99.90;;;;;;4974644;28;20594;-80
2023/10/24 09:51:35;;;;;;;5.00;4.40;;;12.70;99.90;;;;;;4976212;28;20529;-80
2023/10/24 09:54:03;;;;;;;4.57;3.33;;;12.60;99.90;;;;;;4975907;28;20176;-80
2023/10/24 09:56:29;;;;;;;3.20;2.70;;;12.60;99.90;;;;;;4976439;28;20211;-80
2023/10/24 09:58:55;;;;;;;2.73;1.97;;;12.40;99.90;;;;;;4976268;28;20647;-80
2023/10/24 10:01:27;;;;;;;2.50;1.90;;;12.30;99.90;;;;;;4975476;28;20306;-80
2023/10/24 10:03:58;;;;;;;2.17;1.87;;;12.30;99.90;;;;;;4976172;28;20176;-81
2023/10/24 10:06:29;;;;;;;4.13;2.63;;;12.30;99.90;;;;;;4975126;28;20532;-82
2023/10/24 10:08:58;;;;;;;3.50;3.20;;;12.30;99.90;;;;;;4956291;28;20510;-81
2023/10/24 10:11:26;;;;;;;4.10;3.53;;;12.40;99.90;;;;;;4956343;28;20252;-81
2023/10/24 10:14:06;;;;;;;5.30;4.20;;;12.40;99.90;;;;;;4956434;28;20245;-82
2023/10/24 10:17:01;;;;;;;4.37;3.80;;;12.50;99.90;;;;;;4955337;28;20211;-81
2023/10/24 10:19:26;;;;;;;4.83;4.20;;;12.50;99.90;;;;;;4956913;28;20228;-81
2023/10/24 10:22:11;;;;;;;5.17;4.13;;;12.50;99.90;;;;;;4975753;28;20172;-81
2023/10/24 10:25:04;;;;;;;5.97;4.70;;;12.60;99.90;;;;;;4975420;28;20254;-80
2023/10/24 10:27:53;;;;;;;5.97;4.63;;;12.70;99.90;;;;;;4975845;28;20555;-82
2023/10/24 10:31:02;;;;;;;4.47;4.07;;;12.60;99.90;;;;;;4976655;28;20183;-81
2023/10/24 10:33:28;;;;;;;4.40;4.00;;;12.60;99.90;;;;;;4973365;28;20636;-82
2023/10/24 10:35:55;;;;;;;5.57;3.97;;;12.70;99.90;;;;;;4954818;28;20184;-82
2023/10/24 10:38:39;;;;;;;7.40;5.37;;;12.70;99.90;;;;;;4970489;28;20524;-81
2023/10/24 10:41:26;;;;;;;4.53;3.60;;;12.90;99.90;;;;;;4973979;28;20188;-81
2023/10/24 10:44:01;;;;;;;3.50;3.13;;;12.90;99.90;;;;;;4970866;28;20219;-81
2023/10/24 10:46:31;;;;;;;3.47;3.17;;;12.90;99.90;;;;;;4971465;28;20179;-81
2023/10/24 10:48:59;;;;;;;4.07;3.23;;;13.00;99.90;;;;;;4973467;28;20215;-82
2023/10/24 10:51:36;;;;;;;6.93;3.47;;;13.20;99.90;;;;;;4954419;29;20172;-82
2023/10/24 10:54:02;;;;;;;6.07;3.00;;;13.30;99.90;;;;;;4955434;28;20222;-81
2023/10/24 10:56:30;;;;;;;3.37;2.87;;;13.30;99.90;;;;;;4974529;28;20184;-83
2023/10/24 10:59:08;;;;;;;4.60;2.60;;;13.30;99.90;;;;;;4973832;28;20172;-83
2023/10/24 11:01:45;;;;;;;4.33;3.10;;;13.10;99.90;;;;;;4974217;28;20195;-82
2023/10/24 11:04:17;;;;;;;3.57;3.20;;;13.10;99.90;;;;;;4974924;28;20172;-81
2023/10/24 11:06:55;;;;;;;3.67;2.90;;;13.30;99.90;;;;;;4972208;28;20176;-81
2023/10/24 11:09:27;;;;;;;3.07;2.77;;;13.60;99.90;;;;;;4974406;28;20664;-79
2023/10/24 11:12:19;;;;;;;4.60;2.73;;;13.70;99.90;;;;;;4974079;28;20612;-78
2023/10/24 11:15:04;;;;;;;3.50;2.20;;;14.30;99.90;;;;;;4974533;28;20636;-78
2023/10/24 11:17:31;;;;;;;4.63;2.43;;;14.90;99.90;;;;;;4974284;28;20172;-77
2023/10/24 11:19:59;;;;;;;2.80;2.40;;;15.60;99.90;;;;;;4962084;28;20180;-76
2023/10/24 11:22:25;;;;;;;5.40;2.40;;;16.10;99.90;;;;;;4973489;28;20175;-78
2023/10/24 11:24:51;;;;;;;3.47;3.17;;;16.60;99.90;;;;;;4973647;28;20593;-76
2023/10/24 11:27:17;;;;;;;2.47;2.25;;;17.40;99.90;;;;;;4979469;28;20631;-76
2023/10/24 11:29:43;;;;;;;4.05;2.53;;;17.60;99.90;;;;;;4992932;28;20211;-76
2023/10/24 11:32:09;;;;;;;9.02;2.22;;;17.80;99.90;;;;;;4992973;28;20206;-76
2023/10/24 11:34:34;;;;;;;2.88;2.00;;;18.20;99.90;;;;;;4983156;28;20263;-77
2023/10/24 11:37:00;;;;;;;3.53;2.40;;;18.20;99.90;;;;;;4974045;28;20175;-75
2023/10/24 11:39:26;;;;;;;3.25;2.25;;;18.00;99.90;;;;;;4973853;28;20172;-80
2023/10/24 11:41:52;;;;;;;2.80;2.53;;;18.00;99.90;;;;;;4973436;28;20533;-77
2023/10/24 11:44:18;;;;;;;3.10;1.92;;;17.80;99.90;;;;;;4973780;28;20184;-76
2023/10/24 11:46:44;;;;;;;2.75;2.10;;;17.70;99.90;;;;;;4973755;28;20290;-77
2023/10/24 11:49:10;;;;;;;2.55;1.90;;;17.70;99.90;;;;;;4972030;28;20215;-78
2023/10/24 11:51:36;;;;;;;3.33;2.35;;;17.30;99.90;;;;;;4973334;28;20168;-76
2023/10/24 11:54:03;;;;;;;3.95;2.03;;;17.40;99.90;;;;;;4973662;28;20350;-74
2023/10/24 11:56:30;;;;;;;5.50;1.98;;;17.50;99.90;;;;;;4965185;28;20193;-71
2023/10/24 11:59:01;;;;;;;3.60;1.90;;;17.30;99.90;;;;;;4961364;28;20714;-76
2023/10/24 12:01:33;;;;;;;7.35;1.90;;;17.40;99.90;;;;;;4965487;28;20188;-73
2023/10/24 12:04:00;;;;;;;2.78;2.03;;;17.20;99.90;;;;;;4967509;28;20186;-85
2023/10/24 12:06:27;;;;;;;5.80;2.08;;;17.20;99.90;;;;;;4983794;28;20183;-80
2023/10/24 12:08:54;;;;;;;3.65;1.70;;;17.50;99.90;;;;;;4974617;28;20222;-81
2023/10/24 12:11:21;;;;;;;3.17;1.65;;;17.50;99.90;;;;;;4971373;28;20176;-81
2023/10/24 12:13:47;;;;;;;2.45;1.67;;;17.20;99.90;;;;;;4973922;28;20392;-81
2023/10/24 12:16:13;;;;;;;1.90;1.80;;;17.00;99.90;;;;;;4972337;28;20191;-80
2023/10/24 12:18:39;;;;;;;5.20;2.30;;;17.20;99.90;;;;;;4983163;28;20168;-81
2023/10/24 12:21:07;;;;;;;4.60;1.83;;;17.00;99.90;;;;;;4970734;28;20203;-80
2023/10/24 12:23:34;;;;;;;3.33;1.90;;;16.60;99.90;;;;;;4971249;28;20293;-83
2023/10/24 12:26:00;;;;;;;3.67;2.15;;;16.70;99.90;;;;;;4971790;28;20652;-81
2023/10/24 12:28:26;;;;;;;4.22;2.10;;;16.60;99.90;;;;;;4981280;28;20215;-81
2023/10/24 12:30:53;;;;;;;8.40;2.67;;;16.40;99.90;;;;;;4977809;28;20215;-82
2023/10/24 12:33:18;;;;;;;4.18;2.40;;;16.40;99.90;;;;;;4969882;28;20540;-82
2023/10/24 12:35:44;;;;;;;5.88;2.55;;;16.50;99.90;;;;;;4992314;28;20654;-80
2023/10/24 12:38:10;;;;;;;7.22;2.75;;;16.60;99.90;;;;;;4993594;28;20180;-84
2023/10/24 12:40:38;;;;;;;8.27;2.53;;;16.70;99.90;;;;;;4984684;28;20728;-78
2023/10/24 12:43:04;;;;;;;7.28;2.67;;;16.60;99.90;;;;;;4975248;28;20671;-76